createdAt,value
2018-06-25T00:00:48.724Z,100511.58
2018-06-25T00:03:16.796Z,100513.27
2018-06-25T00:05:44.401Z,100506.44
2018-06-25T00:08:12.044Z,100514.01
2018-06-25T00:10:39.652Z,100506.92
2018-06-25T00:13:07.623Z,100513.78
2018-06-25T00:15:36.824Z,100504.87
2018-06-25T00:18:04.691Z,100500.22
2018-06-25T00:20:33.199Z,100501.20
2018-06-25T00:23:02.075Z,100492.45
2018-06-25T00:25:31.761Z,100486.38
2018-06-25T00:28:01.236Z,100488.72
2018-06-25T00:30:29.112Z,100492.73
2018-06-25T00:32:56.699Z,100485.17
2018-06-25T00:35:26.694Z,100491.88
2018-06-25T00:37:54.287Z,100487.63
2018-06-25T00:40:22.347Z,100492.64
2018-06-25T00:42:49.977Z,100492.41
2018-06-25T00:45:17.588Z,100493.05
2018-06-25T00:47:45.505Z,100495.86
2018-06-25T00:50:13.152Z,100494.16
2018-06-25T00:52:42.433Z,100498.89
2018-06-25T00:55:10.089Z,100494.87
2018-06-25T00:57:38.032Z,100488.67
2018-06-25T01:00:05.643Z,100495.25
2018-06-25T01:02:33.298Z,100503.50
2018-06-25T01:05:00.894Z,100502.03
2018-06-25T01:07:28.788Z,100492.98
2018-06-25T01:09:56.456Z,100495.20
2018-06-25T01:12:25.422Z,100486.80
2018-06-25T01:14:53.781Z,100495.09
2018-06-25T01:17:21.391Z,100497.08
2018-06-25T01:19:49.001Z,100495.50
2018-06-25T01:22:16.604Z,100500.64
2018-06-25T01:24:44.486Z,100498.13
2018-06-25T01:27:12.096Z,100489.21
2018-06-25T01:29:41.243Z,100488.37
2018-06-25T01:32:09.210Z,100488.63
2018-06-25T01:34:37.000Z,100494.51
2018-06-25T01:37:04.821Z,100493.64
2018-06-25T01:39:32.478Z,100492.66
2018-06-25T01:42:00.402Z,100492.78
2018-06-25T01:44:28.014Z,100500.34
2018-06-25T01:46:55.631Z,100496.80
2018-06-25T01:49:23.247Z,100496.45
2018-06-25T01:51:51.131Z,100501.34
2018-06-25T01:54:18.807Z,100502.67
2018-06-25T01:56:46.424Z,100496.55
2018-06-25T01:59:14.082Z,100498.47
2018-06-25T02:01:41.939Z,100492.41
2018-06-25T02:04:09.561Z,100497.89
2018-06-25T02:06:37.177Z,100494.28
2018-06-25T02:09:05.215Z,100491.50
2018-06-25T02:11:33.148Z,100498.48
2018-06-25T02:14:00.796Z,100496.44
2018-06-25T02:16:28.415Z,100492.66
2018-06-25T02:18:56.335Z,100495.98
2018-06-25T02:21:23.963Z,100494.41
2018-06-25T02:23:51.571Z,100496.03
2018-06-25T02:26:19.491Z,100503.84
2018-06-25T02:28:47.122Z,100496.05
2018-06-25T02:31:14.763Z,100497.67
2018-06-25T02:33:42.968Z,100495.63
2018-06-25T02:36:10.878Z,100495.75
2018-06-25T02:38:38.510Z,100496.50
2018-06-25T02:41:06.150Z,100498.08
2018-06-25T02:43:34.299Z,100498.94
2018-06-25T02:46:02.723Z,100502.45
2018-06-25T02:48:31.013Z,100503.55
2018-06-25T02:50:59.670Z,100499.53
2018-06-25T02:53:27.362Z,100499.18
2018-06-25T02:55:54.957Z,100501.98
2018-06-25T02:58:22.840Z,100501.16
2018-06-25T03:00:50.480Z,100498.24
2018-06-25T03:03:18.163Z,100504.59
2018-06-25T03:05:45.779Z,100509.08
2018-06-25T03:08:13.681Z,100512.12
2018-06-25T03:10:41.305Z,100507.50
2018-06-25T03:13:08.973Z,100515.53
2018-06-25T03:15:38.000Z,100516.52
2018-06-25T03:18:05.616Z,100518.34
2018-06-25T03:20:33.212Z,100514.95
2018-06-25T03:23:00.848Z,100512.75
2018-06-25T03:25:28.727Z,100516.41
2018-06-25T03:27:56.325Z,100516.77
2018-06-25T03:30:24.709Z,100508.85
2018-06-25T03:32:52.835Z,100518.11
2018-06-25T03:35:20.725Z,100518.81
2018-06-25T03:37:48.519Z,100517.86
2018-06-25T03:40:16.120Z,100517.86
2018-06-25T03:42:43.756Z,100520.90
2018-06-25T03:45:11.695Z,100522.23
2018-06-25T03:47:39.687Z,100520.27
2018-06-25T03:50:07.325Z,100528.03
2018-06-25T03:52:34.990Z,100527.27
2018-06-25T03:55:02.884Z,100524.47
2018-06-25T03:57:30.499Z,100530.54
2018-06-25T03:59:58.126Z,100535.30
2018-06-25T04:02:26.303Z,100534.80
2018-06-25T04:04:54.224Z,100541.61
2018-06-25T04:07:21.867Z,100542.25
2018-06-25T04:09:49.510Z,100541.61
2018-06-25T04:12:17.156Z,100552.45
2018-06-25T04:14:45.140Z,100542.08
2018-06-25T04:17:12.775Z,100536.47
2018-06-25T04:19:40.649Z,100543.02
2018-06-25T04:22:13.155Z,100544.59
2018-06-25T04:24:43.039Z,100541.55
2018-06-25T04:27:10.697Z,100541.33
2018-06-25T04:29:38.317Z,100554.02
2018-06-25T04:32:05.944Z,100546.45
2018-06-25T04:34:34.899Z,100555.71
2018-06-25T04:37:02.569Z,100548.89
2018-06-25T04:39:30.186Z,100550.81
2018-06-25T04:41:58.116Z,100552.00
2018-06-25T04:44:26.336Z,100557.36
2018-06-25T04:46:54.944Z,100553.69
2018-06-25T04:49:22.842Z,100555.77
2018-06-25T04:51:50.443Z,100553.16
2018-06-25T04:54:18.097Z,100560.45
2018-06-25T04:56:46.563Z,100568.61
2018-06-25T04:59:14.203Z,100567.62
2018-06-25T05:01:41.802Z,100569.79
2018-06-25T05:04:09.779Z,100577.23
2018-06-25T05:06:37.400Z,100577.46
2018-06-25T05:09:05.079Z,100577.66
2018-06-25T05:11:32.984Z,100574.38
2018-06-25T05:14:00.596Z,100581.03
2018-06-25T05:16:28.218Z,100580.05
2018-06-25T05:18:56.135Z,100578.80
2018-06-25T05:21:23.848Z,100579.35
2018-06-25T05:23:51.463Z,100582.77
2018-06-25T05:26:19.371Z,100589.91
2018-06-25T05:28:48.684Z,100581.25
2018-06-25T05:31:21.419Z,100577.58
2018-06-25T05:33:49.319Z,100578.28
2018-06-25T05:36:16.963Z,100579.56
2018-06-25T05:38:44.603Z,100581.62
2018-06-25T05:41:12.516Z,100587.41
2018-06-25T05:43:40.178Z,100580.80
2018-06-25T05:46:07.812Z,100581.84
2018-06-25T05:48:35.437Z,100590.54
2018-06-25T05:51:03.120Z,100594.21
2018-06-25T05:53:31.032Z,100585.81
2018-06-25T05:55:58.677Z,100587.62
2018-06-25T05:58:26.318Z,100596.67
2018-06-25T06:00:54.215Z,100594.98
2018-06-25T06:03:21.855Z,100594.12
2018-06-25T06:05:49.485Z,100602.33
2018-06-25T06:08:17.772Z,100605.48
2018-06-25T06:10:45.520Z,100598.53
2018-06-25T06:13:14.310Z,100597.77
2018-06-25T06:15:44.208Z,100602.49
2018-06-25T06:18:11.862Z,100596.84
2018-06-25T06:20:39.785Z,100604.98
2018-06-25T06:23:07.917Z,100605.27
2018-06-25T06:25:35.590Z,100600.06
2018-06-25T06:28:04.232Z,100608.22
2018-06-25T06:30:32.127Z,100607.92
2018-06-25T06:32:59.763Z,100606.39
2018-06-25T06:35:27.393Z,100608.11
2018-06-25T06:37:55.311Z,100608.05
2018-06-25T06:40:22.927Z,100617.27
2018-06-25T06:42:50.531Z,100617.67
2018-06-25T06:45:19.732Z,100618.92
2018-06-25T06:47:47.608Z,100617.27
2018-06-25T06:50:16.036Z,100617.75
2018-06-25T06:52:44.720Z,100622.44
2018-06-25T06:55:12.959Z,100627.77
2018-06-25T06:57:40.607Z,100632.70
2018-06-25T07:00:08.524Z,100634.28
2018-06-25T07:02:36.702Z,100639.52
2018-06-25T07:05:06.499Z,100629.97
2018-06-25T07:07:34.623Z,100642.08
2018-06-25T07:10:03.063Z,100643.63
2018-06-25T07:12:30.709Z,100646.44
2018-06-25T07:14:58.593Z,100646.87
2018-06-25T07:17:27.179Z,100641.66
2018-06-25T07:19:54.792Z,100645.54
2018-06-25T07:22:22.789Z,100647.63
2018-06-25T07:24:50.395Z,100636.66
2018-06-25T07:27:18.790Z,100645.08
2018-06-25T07:29:48.716Z,100642.87
2018-06-25T07:32:18.056Z,100643.38
2018-06-25T07:34:45.671Z,100643.95
2018-06-25T07:37:14.544Z,100649.76
2018-06-25T07:39:42.139Z,100648.49
2018-06-25T07:42:10.296Z,100647.06
2018-06-25T07:44:39.343Z,100655.99
2018-06-25T07:47:07.685Z,100655.00
2018-06-25T07:49:35.341Z,100656.13
2018-06-25T07:52:03.479Z,100659.22
2018-06-25T07:54:31.107Z,100655.66
2018-06-25T07:56:58.710Z,100653.91
2018-06-25T07:59:26.617Z,100655.66
2018-06-25T08:01:55.411Z,100648.73
2018-06-25T08:04:23.043Z,100649.50
2018-06-25T08:06:50.949Z,100653.39
2018-06-25T08:09:18.584Z,100662.71
2018-06-25T08:11:46.988Z,100663.39
2018-06-25T08:14:15.129Z,100665.17
2018-06-25T08:16:42.812Z,100662.83
2018-06-25T08:19:10.408Z,100669.81
2018-06-25T08:21:38.287Z,100671.27
2018-06-25T08:24:05.882Z,100677.66
2018-06-25T08:26:33.468Z,100675.61
2018-06-25T08:29:01.369Z,100681.27
2018-06-25T08:31:28.995Z,100685.31
2018-06-25T08:33:56.671Z,100689.88
2018-06-25T08:36:24.577Z,100681.41
2018-06-25T08:38:52.211Z,100690.28
2018-06-25T08:41:20.579Z,100690.97
2018-06-25T08:43:48.691Z,100693.20
2018-06-25T08:46:16.285Z,100694.87
2018-06-25T08:48:44.578Z,100698.16
2018-06-25T08:51:12.487Z,100692.28
2018-06-25T08:53:40.090Z,100690.78
2018-06-25T08:56:07.732Z,100687.34
2018-06-25T08:58:35.628Z,100687.47
2018-06-25T09:01:03.267Z,100689.31
2018-06-25T09:03:31.507Z,100693.44
2018-06-25T09:06:00.242Z,100689.17
2018-06-25T09:08:27.839Z,100687.82
2018-06-25T09:10:56.352Z,100688.36
2018-06-25T09:13:26.421Z,100687.10
2018-06-25T09:15:54.092Z,100687.28
2018-06-25T09:18:22.365Z,100678.98
2018-06-25T09:20:52.237Z,100676.12
2018-06-25T09:23:20.435Z,100676.80
2018-06-25T09:25:49.153Z,100672.40
2018-06-25T09:28:17.076Z,100675.42
2018-06-25T09:30:44.669Z,100679.39
2018-06-25T09:33:12.332Z,100683.75
2018-06-25T09:35:40.230Z,100680.34
2018-06-25T09:38:08.691Z,100690.15
2018-06-25T09:40:38.223Z,100686.55
2018-06-25T09:43:06.107Z,100691.73
2018-06-25T09:45:34.363Z,100697.49
2018-06-25T09:48:03.184Z,100695.08
2018-06-25T09:50:31.869Z,100698.97
2018-06-25T09:52:59.523Z,100698.50
2018-06-25T09:55:27.672Z,100699.91
2018-06-25T09:57:55.585Z,100703.55
2018-06-25T10:00:28.151Z,100698.75
2018-06-25T10:02:55.808Z,100702.36
2018-06-25T10:05:24.421Z,100702.75
2018-06-25T10:07:56.068Z,100696.48
2018-06-25T10:10:23.708Z,100703.46
2018-06-25T10:12:51.768Z,100698.59
2018-06-25T10:15:19.524Z,100696.19
2018-06-25T10:17:48.292Z,100695.55
2018-06-25T10:20:16.504Z,100699.27
2018-06-25T10:22:44.188Z,100699.27
2018-06-25T10:25:11.825Z,100695.55
2018-06-25T10:27:39.738Z,100688.53
2018-06-25T10:30:07.554Z,100700.77
2018-06-25T10:32:36.971Z,100698.42
2018-06-25T10:35:04.864Z,100707.39
2018-06-25T10:37:33.448Z,100700.72
2018-06-25T10:40:01.116Z,100699.69
2018-06-25T10:42:30.478Z,100707.47
2018-06-25T10:44:59.003Z,100699.42
2018-06-25T10:47:27.227Z,100699.84
2018-06-25T10:49:55.260Z,100699.62
2018-06-25T10:52:24.284Z,100700.23
2018-06-25T10:54:52.188Z,100701.98
2018-06-25T10:57:22.403Z,100707.57
2018-06-25T10:59:51.500Z,100707.44
2018-06-25T11:02:19.344Z,100707.05
2018-06-25T11:04:48.249Z,100705.83
2018-06-25T11:07:17.225Z,100697.02
2018-06-25T11:09:47.239Z,100702.47
2018-06-25T11:12:14.852Z,100707.05
2018-06-25T11:14:42.485Z,100707.34
2018-06-25T11:17:10.398Z,100703.29
2018-06-25T11:19:38.647Z,100708.06
2018-06-25T11:22:06.272Z,100697.30
2018-06-25T11:24:37.223Z,100690.66
2018-06-25T11:27:05.056Z,100691.73
2018-06-25T11:29:32.548Z,100690.09
2018-06-25T11:32:01.594Z,100687.18
2018-06-25T11:34:29.904Z,100689.22
2018-06-25T11:36:58.403Z,100680.93
2018-06-25T11:39:26.356Z,100679.05
2018-06-25T11:41:53.987Z,100676.80
2018-06-25T11:44:21.645Z,100673.19
2018-06-25T11:46:51.195Z,100670.05
2018-06-25T11:49:20.280Z,100662.16
2018-06-25T11:51:49.146Z,100665.00
2018-06-25T11:54:19.937Z,100667.48
2018-06-25T11:56:48.692Z,100678.13
2018-06-25T11:59:16.297Z,100665.24
2018-06-25T12:01:44.530Z,100678.75
2018-06-25T12:04:14.241Z,100680.98
2018-06-25T12:09:16.151Z,100681.14
2018-06-25T12:11:43.770Z,100684.40
2018-06-25T12:14:12.089Z,100681.48
2018-06-25T12:16:39.916Z,100687.61
2018-06-25T12:19:08.532Z,100685.63
2018-06-25T12:21:36.136Z,100695.16
2018-06-25T12:24:04.036Z,100688.37
2018-06-25T12:26:31.629Z,100692.16
2018-06-25T12:28:59.839Z,100689.48
2018-06-25T12:31:28.355Z,100685.03
2018-06-25T12:33:56.748Z,100684.55
2018-06-25T12:36:24.404Z,100689.00
2018-06-25T12:38:52.991Z,100693.18
2018-06-25T12:41:20.614Z,100692.27
2018-06-25T12:43:48.229Z,100686.58
2018-06-25T12:48:54.384Z,100680.05
2018-06-25T12:51:22.658Z,100687.40
2018-06-25T12:53:51.082Z,100678.32
2018-06-25T12:56:20.432Z,100684.44
2018-06-25T12:58:48.063Z,100674.62
2018-06-25T13:01:15.700Z,100676.34
2018-06-25T13:03:43.594Z,100676.30
2018-06-25T13:06:12.456Z,100674.80
2018-06-25T13:08:40.073Z,100683.73
2018-06-25T13:11:10.647Z,100685.97
2018-06-25T13:13:39.898Z,100677.63
2018-06-25T13:16:09.431Z,100676.83
2018-06-25T13:18:37.327Z,100674.20
2018-06-25T13:21:04.938Z,100669.58
2018-06-25T13:23:32.560Z,100674.21
2018-06-25T13:26:09.093Z,100668.92
2018-06-25T13:28:36.916Z,100672.88
2018-06-25T13:31:04.611Z,100667.30
2018-06-25T13:33:34.589Z,100666.16
2018-06-25T13:36:02.200Z,100669.64
2018-06-25T13:38:30.650Z,100668.86
2018-06-25T13:41:01.073Z,100656.25
2018-06-25T13:43:28.683Z,100654.80
2018-06-25T13:45:56.295Z,100659.78
2018-06-25T13:48:25.107Z,100656.86
2018-06-25T13:50:53.491Z,100661.97
2018-06-25T13:53:24.759Z,100662.43
2018-06-25T13:55:56.064Z,100662.41
2018-06-25T13:58:24.255Z,100661.30
2018-06-25T14:09:02.624Z,100644.69
2018-06-25T14:11:31.198Z,100660.48
2018-06-25T14:13:59.636Z,100655.97
2018-06-25T14:16:27.360Z,100658.58
2018-06-25T14:18:55.232Z,100659.12
2018-06-25T14:21:25.836Z,100656.04
2018-06-25T14:23:59.156Z,100651.95
2018-06-25T14:26:31.667Z,100639.56
2018-06-25T14:29:00.356Z,100648.98
2018-06-25T14:31:29.367Z,100650.38
2018-06-25T14:34:02.939Z,100654.26
2018-06-25T14:36:30.600Z,100652.13
2018-06-25T14:38:58.194Z,100658.73
2018-06-25T14:41:27.308Z,100651.72
2018-06-25T14:43:54.955Z,100644.20
2018-06-25T14:46:22.590Z,100647.45
2018-06-25T14:48:50.475Z,100648.67
2018-06-25T14:51:18.108Z,100643.46
2018-06-25T14:53:45.718Z,100636.02
2018-06-25T14:56:14.339Z,100630.16
2018-06-25T14:58:42.731Z,100627.61
2018-06-25T15:01:12.914Z,100631.92
2018-06-25T15:03:40.840Z,100642.83
2018-06-25T15:06:10.252Z,100637.25
2018-06-25T15:08:38.600Z,100644.50
2018-06-25T15:11:11.383Z,100644.52
2018-06-25T15:13:41.028Z,100637.44
2018-06-25T15:16:09.278Z,100641.58
2018-06-25T15:18:40.271Z,100633.02
2018-06-25T15:21:08.528Z,100633.48
2018-06-25T15:23:36.143Z,100631.00
2018-06-25T15:26:04.024Z,100631.62
2018-06-25T15:28:32.219Z,100638.66
2018-06-25T15:31:02.671Z,100629.89
2018-06-25T15:33:30.621Z,100621.16
2018-06-25T15:36:00.439Z,100622.61
2018-06-25T15:38:28.738Z,100622.45
2018-06-25T15:40:56.666Z,100624.17
2018-06-25T15:43:24.495Z,100628.32
2018-06-25T15:45:52.110Z,100628.55
2018-06-25T15:48:20.003Z,100634.48
2018-06-25T15:50:47.631Z,100628.45
2018-06-25T15:53:15.888Z,100628.82
2018-06-25T15:55:44.361Z,100614.52
2018-06-25T15:58:12.878Z,100622.69
2018-06-25T16:00:41.290Z,100616.16
2018-06-25T16:03:10.313Z,100609.84
2018-06-25T16:05:38.201Z,100611.93
2018-06-25T16:08:05.849Z,100607.89
2018-06-25T16:10:34.728Z,100610.95
2018-06-25T16:13:03.258Z,100613.50
2018-06-25T16:15:32.037Z,100618.84
2018-06-25T16:17:59.911Z,100619.13
2018-06-25T16:20:27.513Z,100611.30
2018-06-25T16:22:55.120Z,100609.38
2018-06-25T16:25:23.039Z,100604.06
2018-06-25T16:27:51.783Z,100609.17
2018-06-25T16:30:19.411Z,100612.13
2018-06-25T16:32:47.448Z,100614.94
2018-06-25T16:35:15.259Z,100612.15
2018-06-25T16:37:42.858Z,100614.89
2018-06-25T16:40:12.419Z,100622.30
2018-06-25T16:42:41.392Z,100618.80
2018-06-25T16:45:09.000Z,100612.45
2018-06-25T16:47:38.288Z,100617.45
2018-06-25T16:50:11.122Z,100616.33
2018-06-25T16:52:38.759Z,100619.11
2018-06-25T16:55:07.619Z,100625.57
2018-06-25T16:57:35.235Z,100623.86
2018-06-25T17:00:02.863Z,100622.38
2018-06-25T17:02:32.154Z,100624.89
2018-06-25T17:04:59.843Z,100621.88
2018-06-25T17:07:27.500Z,100625.61
2018-06-25T17:09:55.442Z,100622.84
2018-06-25T17:12:23.771Z,100622.36
2018-06-25T17:14:51.380Z,100623.15
2018-06-25T17:17:23.267Z,100625.26
2018-06-25T17:19:51.399Z,100626.11
2018-06-25T17:22:19.878Z,100621.25
2018-06-25T17:24:47.760Z,100626.34
2018-06-25T17:27:15.468Z,100629.34
2018-06-25T17:29:44.473Z,100624.34
2018-06-25T17:32:13.967Z,100624.75
2018-06-25T17:34:42.614Z,100621.77
2018-06-25T17:37:12.892Z,100621.16
2018-06-25T17:39:45.305Z,100613.45
2018-06-25T17:42:16.597Z,100613.22
2018-06-25T17:44:45.231Z,100608.89
2018-06-25T17:47:13.324Z,100607.61
2018-06-25T17:49:40.947Z,100609.40
2018-06-25T17:52:09.259Z,100604.69
2018-06-25T17:54:39.268Z,100605.77
2018-06-25T17:57:08.263Z,100606.19
2018-06-25T17:59:43.451Z,100603.03
2018-06-25T18:04:43.689Z,100608.66
2018-06-25T18:07:16.469Z,100606.48
2018-06-25T18:09:44.335Z,100605.33
2018-06-25T18:12:12.502Z,100606.68
2018-06-25T18:14:43.146Z,100610.44
2018-06-25T18:17:15.438Z,100615.53
2018-06-25T18:19:44.322Z,100612.81
2018-06-25T18:22:13.420Z,100608.78
2018-06-25T18:24:43.731Z,100610.13
2018-06-25T18:27:11.355Z,100612.53
2018-06-25T18:29:39.632Z,100607.44
2018-06-25T18:32:09.155Z,100612.88
2018-06-25T18:34:36.751Z,100615.92
2018-06-25T18:37:07.535Z,100617.63
2018-06-25T18:39:39.371Z,100617.28
2018-06-25T18:42:08.289Z,100624.08
2018-06-25T18:44:38.372Z,100622.19
2018-06-25T18:47:06.832Z,100612.70
2018-06-25T18:49:34.733Z,100617.28
2018-06-25T18:52:03.052Z,100621.02
2018-06-25T18:54:30.813Z,100616.28
2018-06-25T18:57:00.466Z,100621.34
2018-06-25T18:59:31.335Z,100622.88
2018-06-25T19:02:00.315Z,100626.09
2018-06-25T19:04:32.301Z,100627.63
2018-06-25T19:07:03.421Z,100619.15
2018-06-25T19:09:33.915Z,100624.89
2018-06-25T19:12:02.499Z,100625.39
2018-06-25T19:14:32.456Z,100629.95
2018-06-25T19:17:00.072Z,100626.03
2018-06-25T19:19:31.854Z,100631.27
2018-06-25T19:21:59.468Z,100631.44
2018-06-25T19:24:27.089Z,100636.45
2018-06-25T19:26:55.164Z,100632.41
2018-06-25T19:29:22.765Z,100641.50
2018-06-25T19:31:51.231Z,100640.80
2018-06-25T19:34:22.717Z,100644.68
2018-06-25T19:36:50.318Z,100645.33
2018-06-25T19:39:19.126Z,100644.28
2018-06-25T19:41:47.843Z,100649.84
2018-06-25T19:44:16.080Z,100647.44
2018-06-25T19:46:43.771Z,100647.89
2018-06-25T19:49:11.643Z,100658.66
2018-06-25T19:51:39.276Z,100663.68
2018-06-25T19:54:07.056Z,100660.93
2018-06-25T19:56:35.649Z,100669.09
2018-06-25T19:59:06.546Z,100674.78
2018-06-25T20:01:36.564Z,100667.48
2018-06-25T20:04:23.952Z,100677.70
2018-06-25T20:06:52.351Z,100681.69
2018-06-25T20:09:20.288Z,100677.09
2018-06-25T20:11:47.911Z,100677.86
2018-06-25T20:14:16.104Z,100683.03
2018-06-25T20:16:45.316Z,100684.66
2018-06-25T20:19:14.360Z,100677.84
2018-06-25T20:21:42.231Z,100680.45
2018-06-25T20:24:10.103Z,100681.83
2018-06-25T20:26:39.294Z,100681.06
2018-06-25T20:29:07.787Z,100693.25
2018-06-25T20:31:37.402Z,100685.94
2018-06-25T20:34:05.869Z,100690.23
2018-06-25T20:36:34.287Z,100691.31
2018-06-25T20:39:02.215Z,100690.41
2018-06-25T20:41:31.413Z,100695.39
2018-06-25T20:44:00.504Z,100696.22
2018-06-25T20:46:28.379Z,100699.54
2018-06-25T20:48:56.000Z,100698.85
2018-06-25T20:51:24.856Z,100699.98
2018-06-25T20:53:54.037Z,100704.00
2018-06-25T20:56:23.041Z,100710.01
2018-06-25T20:58:51.701Z,100717.91
2018-06-25T21:01:19.596Z,100714.28
2018-06-25T21:03:48.812Z,100721.33
2018-06-25T21:06:16.520Z,100722.59
2018-06-25T21:08:44.406Z,100714.96
2018-06-25T21:11:12.143Z,100713.58
2018-06-25T21:13:39.742Z,100707.63
2018-06-25T21:16:09.330Z,100714.25
2018-06-25T21:18:38.620Z,100712.22
2018-06-25T21:21:07.943Z,100716.39
2018-06-25T21:23:36.887Z,100715.83
2018-06-25T21:26:05.447Z,100710.41
2018-06-25T21:28:33.819Z,100707.28
2018-06-25T21:31:02.011Z,100712.28
2018-06-25T21:33:29.922Z,100710.85
2018-06-25T21:35:58.653Z,100706.25
2018-06-25T21:38:26.536Z,100709.86
2018-06-25T21:40:55.527Z,100708.95
2018-06-25T21:43:23.952Z,100705.34
2018-06-25T21:45:53.011Z,100701.75
2018-06-25T21:48:20.615Z,100706.56
2018-06-25T21:50:49.319Z,100704.66
2018-06-25T21:53:19.628Z,100702.27
2018-06-25T21:55:48.589Z,100700.83
2018-06-25T21:58:19.366Z,100706.00
2018-06-25T22:00:51.175Z,100707.50
2018-06-25T22:03:18.812Z,100708.50
2018-06-25T22:05:47.154Z,100711.19
2018-06-25T22:08:14.749Z,100704.95
2018-06-25T22:10:42.580Z,100709.84
2018-06-25T22:13:11.457Z,100708.63
2018-06-25T22:15:39.879Z,100707.42
2018-06-25T22:18:07.528Z,100713.44
2018-06-25T22:20:35.428Z,100712.53
2018-06-25T22:23:03.647Z,100712.44
2018-06-25T22:25:31.259Z,100708.00
2018-06-25T22:27:59.251Z,100706.91
2018-06-25T22:30:27.764Z,100710.67
2018-06-25T22:32:55.440Z,100713.23
2018-06-25T22:35:25.470Z,100711.83
2018-06-25T22:37:53.067Z,100709.05
2018-06-25T22:40:21.393Z,100716.89
2018-06-25T22:42:49.334Z,100717.06
2018-06-25T22:45:17.335Z,100715.36
2018-06-25T22:47:45.882Z,100714.02
2018-06-25T22:50:14.413Z,100711.45
2018-06-25T22:52:44.220Z,100707.20
2018-06-25T22:55:11.812Z,100711.53
2018-06-25T22:57:41.359Z,100713.86
2018-06-25T23:00:09.232Z,100712.91
2018-06-25T23:02:39.795Z,100710.98
2018-06-25T23:05:09.644Z,100717.06
2018-06-25T23:07:38.056Z,100718.59
2018-06-25T23:10:05.648Z,100727.70
2018-06-25T23:12:33.874Z,100723.58
2018-06-25T23:15:03.072Z,100725.55
2018-06-25T23:17:30.685Z,100724.50
2018-06-25T23:19:58.826Z,100727.20
2018-06-25T23:22:27.732Z,100724.10
2018-06-25T23:24:55.358Z,100728.15
2018-06-25T23:27:22.979Z,100734.79
2018-06-25T23:29:50.899Z,100736.53
2018-06-25T23:32:18.511Z,100739.98
2018-06-25T23:34:47.304Z,100738.69
2018-06-25T23:37:14.925Z,100738.45
2018-06-25T23:39:43.683Z,100741.66
2018-06-25T23:42:11.284Z,100740.69
2018-06-25T23:44:38.879Z,100731.70
2018-06-25T23:47:06.484Z,100739.63
2018-06-25T23:49:34.374Z,100736.36
2018-06-25T23:52:02.691Z,100741.50
2018-06-25T23:54:30.285Z,100735.06
2018-06-25T23:56:58.585Z,100734.20
2018-06-25T23:59:26.468Z,100734.00
